createdAt,value
2018-02-13T00:00:48.751Z,101322.22
2018-02-13T00:03:18.535Z,101316.72
2018-02-13T00:05:48.297Z,101321.41
2018-02-13T00:08:18.501Z,101316.76
2018-02-13T00:19:11.371Z,101311.86
2018-02-13T00:21:41.553Z,101313.13
2018-02-13T00:24:11.551Z,101318.30
2018-02-13T00:26:40.781Z,101310.71
2018-02-13T00:29:09.742Z,101315.41
2018-02-13T00:31:38.757Z,101309.98
2018-02-13T00:34:07.777Z,101317.14
2018-02-13T00:36:36.855Z,101312.54
2018-02-13T00:39:05.819Z,101305.33
2018-02-13T00:41:34.885Z,101310.88
2018-02-13T00:44:03.820Z,101317.27
2018-02-13T00:46:32.891Z,101306.70
2018-02-13T00:49:01.849Z,101308.02
2018-02-13T00:51:32.415Z,101300.47
2018-02-13T00:54:01.779Z,101304.27
2018-02-13T00:56:30.752Z,101299.11
2018-02-13T00:58:59.794Z,101303.08
2018-02-13T01:01:28.766Z,101295.44
2018-02-13T01:03:57.775Z,101299.74
2018-02-13T01:06:26.736Z,101301.49
2018-02-13T01:08:55.757Z,101306.56
2018-02-13T01:11:24.789Z,101301.06
2018-02-13T01:13:53.763Z,101296.03
2018-02-13T01:19:14.673Z,101292.66
2018-02-13T01:30:07.085Z,101289.38
2018-02-13T01:32:36.710Z,101284.81
2018-02-13T01:35:06.398Z,101287.80
2018-02-13T01:37:36.562Z,101289.12
2018-02-13T01:40:05.732Z,101287.87
2018-02-13T01:42:34.733Z,101286.21
2018-02-13T01:45:03.770Z,101280.63
2018-02-13T01:47:35.761Z,101283.70
2018-02-13T01:50:10.763Z,101276.84
2018-02-13T01:52:39.754Z,101282.92
2018-02-13T01:55:08.738Z,101276.96
2018-02-13T01:57:37.735Z,101282.08
2018-02-13T02:00:06.774Z,101275.80
2018-02-13T02:02:35.762Z,101274.13
2018-02-13T02:05:04.767Z,101277.13
2018-02-13T02:07:36.724Z,101274.13
2018-02-13T02:10:05.774Z,101273.28
2018-02-13T02:12:34.866Z,101267.41
2018-02-13T02:15:03.825Z,101266.97
2018-02-13T02:17:32.786Z,101263.68
2018-02-13T02:20:01.754Z,101261.48
2018-02-13T02:22:30.789Z,101261.63
2018-02-13T02:24:59.774Z,101260.82
2018-02-13T02:27:28.778Z,101256.13
2018-02-13T02:29:57.803Z,101253.16
2018-02-13T02:32:28.310Z,101257.48
2018-02-13T02:34:57.721Z,101255.36
2018-02-13T02:37:26.763Z,101257.88
2018-02-13T02:39:55.807Z,101253.23
2018-02-13T02:42:24.793Z,101249.44
2018-02-13T02:44:53.764Z,101255.02
2018-02-13T02:47:22.760Z,101248.59
2018-02-13T02:49:51.776Z,101238.91
2018-02-13T02:52:20.757Z,101249.55
2018-02-13T02:54:49.771Z,101241.53
2018-02-13T02:57:18.760Z,101233.95
2018-02-13T02:59:47.906Z,101238.59
2018-02-13T03:02:16.868Z,101234.38
2018-02-13T03:04:45.868Z,101221.60
2018-02-13T03:07:14.865Z,101220.28
2018-02-13T03:09:43.848Z,101222.03
2018-02-13T03:12:12.762Z,101216.95
2018-02-13T03:14:41.788Z,101213.55
2018-02-13T03:17:10.849Z,101211.08
2018-02-13T03:19:39.781Z,101206.81
2018-02-13T03:22:08.771Z,101213.20
2018-02-13T03:24:37.756Z,101209.77
2018-02-13T03:27:06.783Z,101211.96
2018-02-13T03:29:35.844Z,101206.89
2018-02-13T03:32:04.779Z,101212.89
2018-02-13T03:34:33.769Z,101208.67
2018-02-13T03:37:04.239Z,101210.37
2018-02-13T03:39:33.737Z,101207.40
2018-02-13T03:42:02.778Z,101205.27
2018-02-13T03:44:31.782Z,101202.29
2018-02-13T03:47:00.843Z,101193.85
2018-02-13T03:49:29.780Z,101196.41
2018-02-13T03:51:58.847Z,101189.70
2018-02-13T03:54:28.237Z,101191.34
2018-02-13T03:56:57.688Z,101190.14
2018-02-13T03:59:26.792Z,101180.89
2018-02-13T04:01:55.777Z,101182.59
2018-02-13T04:04:24.793Z,101182.16
2018-02-13T04:06:53.779Z,101177.06
2018-02-13T04:09:22.790Z,101170.67
2018-02-13T04:11:51.999Z,101174.97
2018-02-13T04:14:21.047Z,101168.55
2018-02-13T04:16:50.183Z,101171.52
2018-02-13T04:19:19.706Z,101171.56
2018-02-13T04:21:48.810Z,101167.38
2018-02-13T04:24:17.833Z,101173.30
2018-02-13T04:26:46.810Z,101172.45
2018-02-13T04:29:15.841Z,101168.70
2018-02-13T04:31:44.859Z,101173.34
2018-02-13T04:34:13.871Z,101168.70
2018-02-13T04:36:43.035Z,101166.14
2018-02-13T04:39:12.245Z,101169.55
2018-02-13T04:41:41.709Z,101169.13
2018-02-13T04:44:10.754Z,101170.94
2018-02-13T04:46:39.814Z,101166.64
2018-02-13T04:49:08.787Z,101162.85
2018-02-13T04:51:39.759Z,101155.55
2018-02-13T04:54:08.766Z,101156.47
2018-02-13T04:56:37.761Z,101159.45
2018-02-13T04:59:06.861Z,101154.34
2018-02-13T05:01:35.816Z,101152.25
2018-02-13T05:04:06.428Z,101152.75
2018-02-13T05:06:35.823Z,101148.11
2018-02-13T05:09:04.930Z,101143.86
2018-02-13T05:11:34.048Z,101148.08
2018-02-13T05:14:03.223Z,101138.33
2018-02-13T05:16:32.785Z,101140.49
2018-02-13T05:19:01.790Z,101137.52
2018-02-13T05:21:30.854Z,101136.31
2018-02-13T05:23:59.850Z,101138.83
2018-02-13T05:26:28.857Z,101126.14
2018-02-13T05:28:57.803Z,101129.12
2018-02-13T05:31:26.868Z,101128.27
2018-02-13T05:33:56.057Z,101134.69
2018-02-13T05:36:25.209Z,101133.88
2018-02-13T05:38:54.749Z,101127.49
2018-02-13T05:41:23.813Z,101131.39
2018-02-13T05:43:52.848Z,101125.90
2018-02-13T05:46:21.960Z,101136.11
2018-02-13T05:48:51.103Z,101136.11
2018-02-13T05:51:20.704Z,101132.28
2018-02-13T05:53:49.888Z,101132.25
2018-02-13T05:56:19.081Z,101128.45
2018-02-13T05:58:48.291Z,101134.45
2018-02-13T06:01:17.896Z,101130.27
2018-02-13T06:03:47.305Z,101124.31
2018-02-13T06:06:16.779Z,101127.36
2018-02-13T06:10:26.537Z,101123.11
2018-02-13T06:12:56.359Z,101126.05
2018-02-13T06:15:25.759Z,101121.41
2018-02-13T06:17:55.103Z,101119.31
2018-02-13T06:20:24.388Z,101127.40
2018-02-13T06:22:53.770Z,101118.47
2018-02-13T06:25:22.841Z,101119.32
2018-02-13T06:27:52.693Z,101111.73
2018-02-13T06:30:21.742Z,101117.23
2018-02-13T06:32:50.796Z,101110.89
2018-02-13T06:35:19.877Z,101113.47
2018-02-13T06:37:49.048Z,101108.73
2018-02-13T06:40:18.289Z,101107.95
2018-02-13T06:42:47.774Z,101102.45
2018-02-13T06:45:16.869Z,101108.45
2018-02-13T06:47:46.073Z,101104.58
2018-02-13T06:50:15.854Z,101105.47
2018-02-13T06:52:44.781Z,101104.62
2018-02-13T06:55:14.104Z,101108.48
2018-02-13T06:57:43.706Z,101108.05
2018-02-13T07:00:12.893Z,101110.61
2018-02-13T07:02:42.412Z,101116.17
2018-02-13T07:05:12.128Z,101108.91
2018-02-13T07:07:45.401Z,101108.91
2018-02-13T07:10:14.863Z,101105.11
2018-02-13T07:12:44.099Z,101109.86
2018-02-13T07:15:13.817Z,101106.89
2018-02-13T07:17:43.710Z,101111.49
2018-02-13T07:20:13.214Z,101108.55
2018-02-13T07:22:43.375Z,101106.85
2018-02-13T07:25:12.777Z,101107.66
2018-02-13T07:27:44.242Z,101109.86
2018-02-13T07:30:13.774Z,101105.22
2018-02-13T07:32:43.512Z,101103.56
2018-02-13T07:35:12.748Z,101104.87
2018-02-13T07:37:41.759Z,101107.84
2018-02-13T07:40:10.829Z,101112.55
2018-02-13T07:42:40.254Z,101112.98
2018-02-13T07:45:09.784Z,101106.25
2018-02-13T07:47:39.995Z,101110.92
2018-02-13T07:50:09.256Z,101109.23
2018-02-13T07:52:38.761Z,101102.49
2018-02-13T07:55:07.936Z,101106.71
2018-02-13T07:57:37.207Z,101103.77
2018-02-13T08:00:06.765Z,101103.77
2018-02-13T08:02:36.270Z,101099.06
2018-02-13T08:05:05.848Z,101095.23
2018-02-13T08:07:35.203Z,101089.28
2018-02-13T08:10:04.885Z,101087.58
2018-02-13T08:22:50.280Z,101087.19
2018-02-13T08:25:20.711Z,101084.25
2018-02-13T08:27:50.592Z,101085.52
2018-02-13T08:30:20.834Z,101082.94
2018-02-13T08:32:51.566Z,101080.42
2018-02-13T08:35:21.525Z,101082.16
2018-02-13T08:37:51.805Z,101093.64
2018-02-13T08:40:21.649Z,101082.98
2018-02-13T08:42:51.795Z,101078.69
2018-02-13T08:45:21.918Z,101079.51
2018-02-13T08:47:51.444Z,101073.63
2018-02-13T08:58:44.536Z,101076.25
2018-02-13T09:01:14.846Z,101079.72
2018-02-13T09:06:31.406Z,101075.47
2018-02-13T09:09:01.428Z,101066.58
2018-02-13T09:29:44.488Z,101055.91
2018-02-13T09:32:14.563Z,101051.17
2018-02-13T09:34:44.589Z,101057.97
2018-02-13T09:45:36.772Z,101059.24
2018-02-13T09:48:06.835Z,101052.91
2018-02-13T09:50:36.839Z,101056.73
2018-02-13T10:10:25.789Z,101049.05
2018-02-13T10:12:55.930Z,101050.36
2018-02-13T10:15:25.787Z,101039.70
2018-02-13T10:17:55.585Z,101036.72
2018-02-13T10:20:25.723Z,101049.01
2018-02-13T10:22:54.882Z,101037.53
2018-02-13T10:25:24.278Z,101040.11
2018-02-13T10:27:53.764Z,101037.92
2018-02-13T10:30:23.709Z,101041.75
2018-02-13T10:32:52.803Z,101034.98
2018-02-13T10:35:22.442Z,101030.70
2018-02-13T10:37:52.268Z,101027.75
2018-02-13T10:40:22.837Z,101017.55
2018-02-13T10:42:52.722Z,101018.47
2018-02-13T10:45:22.347Z,101013.77
2018-02-13T10:47:51.960Z,101013.73
2018-02-13T10:50:21.267Z,101019.18
2018-02-13T10:52:50.945Z,101008.55
2018-02-13T10:55:20.478Z,101017.55
2018-02-13T10:57:49.929Z,101009.41
2018-02-13T11:00:19.481Z,101020.45
2018-02-13T11:02:48.857Z,101022.97
2018-02-13T11:05:18.282Z,101003.84
2018-02-13T11:07:49.922Z,101001.29
2018-02-13T11:10:19.317Z,100990.66
2018-02-13T11:12:48.998Z,100992.71
2018-02-13T11:15:18.685Z,100989.70
2018-02-13T11:17:47.883Z,100991.82
2018-02-13T11:20:17.438Z,100979.03
2018-02-13T11:22:46.912Z,100976.09
2018-02-13T11:25:16.510Z,100971.77
2018-02-13T11:27:45.886Z,100960.75
2018-02-13T11:30:16.126Z,100965.38
2018-02-13T11:32:45.796Z,100962.37
2018-02-13T11:35:15.471Z,100950.08
2018-02-13T11:37:44.829Z,100957.69
2018-02-13T11:40:14.307Z,100941.92
2018-02-13T11:42:43.893Z,100946.17
2018-02-13T11:45:13.260Z,100942.30
2018-02-13T11:47:42.788Z,100946.09
2018-02-13T11:50:12.438Z,100937.86
2018-02-13T11:52:41.947Z,100932.66
2018-02-13T11:55:11.095Z,100922.58
2018-02-13T11:57:40.797Z,100930.20
2018-02-13T12:00:10.278Z,100924.63
2018-02-13T12:02:39.814Z,100920.77
2018-02-13T12:05:09.291Z,100918.59
2018-02-13T12:07:38.765Z,100925.30
2018-02-13T12:10:08.261Z,100922.28
2018-02-13T12:12:37.907Z,100911.10
2018-02-13T12:15:07.405Z,100908.13
2018-02-13T12:17:36.937Z,100913.19
2018-02-13T12:20:06.810Z,100904.72
2018-02-13T12:22:36.313Z,100892.30
2018-02-13T12:25:05.884Z,100900.77
2018-02-13T12:27:35.587Z,100907.56
2018-02-13T12:30:05.538Z,100895.20
2018-02-13T12:32:35.777Z,100893.95
2018-02-13T12:35:05.695Z,100895.14
2018-02-13T12:37:35.814Z,100883.14
2018-02-13T12:40:05.498Z,100881.39
2018-02-13T12:42:35.735Z,100877.52
2018-02-13T12:45:05.467Z,100877.48
2018-02-13T12:47:35.727Z,100871.05
2018-02-13T12:50:05.697Z,100869.02
2018-02-13T12:52:36.048Z,100864.28
2018-02-13T12:55:05.972Z,100856.48
2018-02-13T12:57:35.817Z,100852.70
2018-02-13T13:00:05.900Z,100866.28
2018-02-13T13:02:35.862Z,100858.56
2018-02-13T13:05:05.926Z,100850.06
2018-02-13T13:07:35.813Z,100851.30
2018-02-13T13:10:05.482Z,100855.92
2018-02-13T13:12:35.345Z,100852.52
2018-02-13T13:15:05.101Z,100842.22
2018-02-13T13:17:34.901Z,100835.88
2018-02-13T13:20:04.850Z,100834.13
2018-02-13T13:22:34.616Z,100830.24
2018-02-13T13:25:04.886Z,100833.61
2018-02-13T13:27:34.857Z,100830.20
2018-02-13T13:30:05.045Z,100826.33
2018-02-13T13:32:35.379Z,100819.89
2018-02-13T13:35:05.412Z,100818.20
2018-02-13T13:37:35.305Z,100814.31
2018-02-13T13:40:05.396Z,100819.89
2018-02-13T13:42:35.385Z,100806.70
2018-02-13T13:45:05.394Z,100803.57
2018-02-13T13:47:35.247Z,100796.75
2018-02-13T13:50:05.468Z,100796.75
2018-02-13T13:52:35.444Z,100799.22
2018-02-13T13:55:05.796Z,100797.52
2018-02-13T13:57:35.745Z,100804.38
2018-02-13T14:00:05.914Z,100797.52
2018-02-13T14:02:35.841Z,100794.48
2018-02-13T14:05:05.727Z,100791.03
2018-02-13T14:07:35.485Z,100786.77
2018-02-13T14:10:05.489Z,100784.55
2018-02-13T14:12:35.454Z,100789.27
2018-02-13T14:15:05.458Z,100787.19
2018-02-13T14:17:35.899Z,100777.34
2018-02-13T14:20:05.998Z,100779.90
2018-02-13T14:22:35.820Z,100781.56
2018-02-13T14:25:05.618Z,100774.70
2018-02-13T14:27:35.463Z,100774.70
2018-02-13T14:30:05.643Z,100776.36
2018-02-13T14:32:35.861Z,100784.02
2018-02-13T14:35:05.863Z,100782.69
2018-02-13T14:37:35.823Z,100771.62
2018-02-13T14:40:05.854Z,100774.17
2018-02-13T14:42:35.672Z,100765.17
2018-02-13T14:45:05.786Z,100765.56
2018-02-13T14:47:35.975Z,100767.69
2018-02-13T14:50:05.957Z,100768.53
2018-02-13T14:52:35.853Z,100758.41
2018-02-13T14:55:05.911Z,100765.97
2018-02-13T14:57:35.693Z,100759.11
2018-02-13T15:12:37.937Z,100755.55
2018-02-13T15:18:23.796Z,100740.60
2018-02-13T15:20:57.225Z,100744.05
2018-02-13T15:23:29.896Z,100750.86
2018-02-13T15:26:00.798Z,100744.05
2018-02-13T15:28:30.485Z,100734.20
2018-02-13T15:31:00.634Z,100732.88
2018-02-13T15:33:29.971Z,100741.39
2018-02-13T15:44:24.494Z,100741.34
2018-02-13T15:47:04.762Z,100739.64
2018-02-13T15:49:34.708Z,100738.36
2018-02-13T15:52:03.843Z,100737.55
2018-02-13T15:54:32.845Z,100749.80
2018-02-13T15:57:01.832Z,100746.44
2018-02-13T15:59:30.876Z,100752.35
2018-02-13T16:02:00.227Z,100760.07
2018-02-13T16:04:29.788Z,100750.66
2018-02-13T16:06:59.265Z,100747.67
2018-02-13T16:09:28.757Z,100756.66
2018-02-13T16:11:59.414Z,100739.47
2018-02-13T16:14:28.879Z,100755.29
2018-02-13T16:16:58.095Z,100761.30
2018-02-13T16:19:27.785Z,100765.60
2018-02-13T16:21:57.259Z,100761.72
2018-02-13T16:24:26.912Z,100757.47
2018-02-13T16:26:56.438Z,100772.80
2018-02-13T16:29:25.809Z,100766.84
2018-02-13T16:31:56.951Z,100766.45
2018-02-13T16:34:26.500Z,100762.16
2018-02-13T16:36:55.755Z,100769.02
2018-02-13T16:39:25.220Z,100771.58
2018-02-13T16:41:54.789Z,100771.56
2018-02-13T16:44:24.278Z,100771.14
2018-02-13T16:46:53.776Z,100766.88
2018-02-13T16:49:23.354Z,100774.56
2018-02-13T16:51:52.815Z,100771.16
2018-02-13T16:54:22.195Z,100772.85
2018-02-13T16:56:51.807Z,100778.39
2018-02-13T16:59:21.112Z,100776.73
2018-02-13T17:01:50.804Z,100776.74
2018-02-13T17:04:20.444Z,100771.63
2018-02-13T17:06:49.754Z,100775.08
2018-02-13T17:09:18.912Z,100775.89
2018-02-13T17:11:48.297Z,100777.20
2018-02-13T17:14:17.868Z,100772.09
2018-02-13T17:16:47.402Z,100776.35
2018-02-13T17:19:16.841Z,100770.36
2018-02-13T17:21:46.092Z,100779.30
2018-02-13T17:24:22.795Z,100778.06
2018-02-13T17:26:51.910Z,100780.63
2018-02-13T17:29:21.320Z,100786.15
2018-02-13T17:31:50.884Z,100781.09
2018-02-13T17:34:19.879Z,100792.97
2018-02-13T17:36:49.141Z,100783.64
2018-02-13T17:39:18.707Z,100784.08
2018-02-13T17:41:47.747Z,100783.66
2018-02-13T17:44:16.789Z,100786.59
2018-02-13T17:46:46.423Z,100784.02
2018-02-13T17:49:15.745Z,100790.09
2018-02-13T17:51:44.757Z,100793.48
2018-02-13T17:54:13.861Z,100796.89
2018-02-13T17:56:43.271Z,100789.29
2018-02-13T17:59:12.762Z,100789.72
2018-02-13T18:01:42.239Z,100788.44
2018-02-13T18:04:11.749Z,100785.93
2018-02-13T18:06:41.229Z,100788.06
2018-02-13T18:09:10.800Z,100795.30
2018-02-13T18:11:40.109Z,100793.64
2018-02-13T18:14:09.682Z,100800.41
2018-02-13T18:16:38.857Z,100803.45
2018-02-13T18:19:08.218Z,100802.60
2018-02-13T18:21:37.731Z,100797.10
2018-02-13T18:24:06.794Z,100797.95
2018-02-13T18:26:35.815Z,100801.36
2018-02-13T18:29:05.115Z,100797.49
2018-02-13T18:31:34.864Z,100800.94
2018-02-13T18:34:04.281Z,100801.41
2018-02-13T18:36:33.730Z,100799.23
2018-02-13T18:39:02.870Z,100818.02
2018-02-13T18:41:31.862Z,100806.94
2018-02-13T18:44:03.317Z,100804.45
2018-02-13T18:46:32.808Z,100804.03
2018-02-13T18:49:01.864Z,100807.91
2018-02-13T18:51:31.060Z,100804.08
2018-02-13T18:54:00.241Z,100803.22
2018-02-13T18:56:29.792Z,100807.09
2018-02-13T18:58:58.824Z,100806.63
2018-02-13T19:01:27.875Z,100823.27
2018-02-13T19:03:57.031Z,100807.53
2018-02-13T19:06:26.234Z,100813.49
2018-02-13T19:08:55.797Z,100817.80
2018-02-13T19:11:25.076Z,100820.39
2018-02-13T19:13:54.721Z,100819.98
2018-02-13T19:16:23.874Z,100817.00
2018-02-13T19:18:52.958Z,100821.67
2018-02-13T19:21:22.209Z,100817.03
2018-02-13T19:23:51.763Z,100822.09
2018-02-13T19:26:20.796Z,100831.95
2018-02-13T19:28:49.873Z,100820.08
2018-02-13T19:31:18.875Z,100832.42
2018-02-13T19:33:47.924Z,100832.03
2018-02-13T19:36:17.221Z,100831.57
2018-02-13T19:38:46.762Z,100830.33
2018-02-13T19:41:15.846Z,100836.72
2018-02-13T19:43:45.171Z,100832.94
2018-02-13T19:46:14.788Z,100837.23
2018-02-13T19:48:43.887Z,100836.77
2018-02-13T19:51:13.079Z,100837.16
2018-02-13T19:53:42.687Z,100840.61
2018-02-13T19:56:11.902Z,100845.70
2018-02-13T19:58:40.893Z,100840.23
2018-02-13T20:01:10.195Z,100842.78
2018-02-13T20:03:39.713Z,100841.08
2018-02-13T20:06:08.903Z,100833.45
2018-02-13T20:08:37.907Z,100846.19
2018-02-13T20:11:06.854Z,100849.55
2018-02-13T20:13:35.834Z,100847.83
2018-02-13T20:16:04.870Z,100844.43
2018-02-13T20:18:33.884Z,100853.89
2018-02-13T20:21:03.052Z,100850.48
2018-02-13T20:23:32.090Z,100845.86
2018-02-13T20:26:01.514Z,100851.81
2018-02-13T20:28:30.850Z,100854.41
2018-02-13T20:30:59.868Z,100855.64
2018-02-13T20:33:28.973Z,100856.97
2018-02-13T20:35:58.038Z,100860.80
2018-02-13T20:38:27.270Z,100865.05
2018-02-13T20:40:56.718Z,100870.16
2018-02-13T20:43:25.775Z,100870.59
2018-02-13T20:45:54.782Z,100867.69
2018-02-13T20:48:23.847Z,100866.33
2018-02-13T20:50:54.278Z,100869.41
2018-02-13T20:53:23.756Z,100867.32
2018-02-13T20:55:52.746Z,100868.55
2018-02-13T20:58:21.751Z,100873.61
2018-02-13T21:00:50.737Z,100869.03
2018-02-13T21:03:19.760Z,100873.71
2018-02-13T21:05:48.795Z,100883.92
2018-02-13T21:08:17.754Z,100887.84
2018-02-13T21:10:46.757Z,100883.12
2018-02-13T21:13:16.094Z,100888.69
2018-02-13T21:15:45.729Z,100893.38
2018-02-13T21:18:14.798Z,100893.84
2018-02-13T21:20:43.870Z,100894.64
2018-02-13T21:23:13.771Z,100900.64
2018-02-13T21:25:42.777Z,100900.64
2018-02-13T21:28:12.000Z,100904.05
2018-02-13T21:30:41.217Z,100902.40
2018-02-13T21:33:10.674Z,100900.31
2018-02-13T21:35:39.756Z,100898.61
2018-02-13T21:38:08.773Z,100905.80
2018-02-13T21:40:37.852Z,100902.06
2018-02-13T21:43:07.206Z,100900.36
2018-02-13T21:45:36.699Z,100904.19
2018-02-13T21:48:07.650Z,100903.77
2018-02-13T21:50:36.777Z,100896.58
2018-02-13T21:53:05.754Z,100900.41
2018-02-13T21:55:34.764Z,100895.34
2018-02-13T21:58:03.735Z,100891.47
2018-02-13T22:00:32.799Z,100900.88
2018-02-13T22:03:01.781Z,100900.88
2018-02-13T22:05:30.868Z,100897.09
2018-02-13T22:07:59.860Z,100899.64
2018-02-13T22:10:29.041Z,100900.06
2018-02-13T22:12:58.048Z,100895.83
2018-02-13T22:15:27.196Z,100872.53
2018-02-13T22:17:56.744Z,100898.88
2018-02-13T22:20:25.739Z,100899.35
2018-02-13T22:22:54.773Z,100901.05
2018-02-13T22:25:24.054Z,100906.55
2018-02-13T22:27:53.047Z,100908.71
2018-02-13T22:30:22.237Z,100916.36
2018-02-13T22:32:51.748Z,100915.09
2018-02-13T22:35:20.747Z,100915.56
2018-02-13T22:37:49.746Z,100922.80
2018-02-13T22:40:18.820Z,100928.33
2018-02-13T22:42:47.844Z,100924.92
2018-02-13T22:45:16.790Z,100921.05
2018-02-13T22:47:45.869Z,100929.55
2018-02-13T22:50:14.878Z,100926.23
2018-02-13T22:52:43.762Z,100928.37
2018-02-13T22:55:12.732Z,100925.91
2018-02-13T22:57:41.739Z,100928.49
2018-02-13T23:00:10.738Z,100942.50
2018-02-13T23:02:39.801Z,100936.92
2018-02-13T23:05:08.876Z,100940.32
2018-02-13T23:07:37.826Z,100949.25
2018-02-13T23:10:07.109Z,100945.94
2018-02-13T23:12:36.775Z,100945.90
2018-02-13T23:15:05.753Z,100946.79
2018-02-13T23:17:34.773Z,100947.17
2018-02-13T23:20:03.806Z,100948.48
2018-02-13T23:22:33.193Z,100948.92
2018-02-13T23:25:02.776Z,100960.44
2018-02-13T23:27:31.844Z,100948.92
2018-02-13T23:30:00.856Z,100958.36
2018-02-13T23:32:29.855Z,100956.66
2018-02-13T23:34:58.841Z,100962.19
2018-02-13T23:37:27.857Z,100967.71
2018-02-13T23:39:57.035Z,100957.08
2018-02-13T23:42:25.840Z,100971.58
2018-02-13T23:44:54.804Z,100961.42
2018-02-13T23:47:23.842Z,100965.28
2018-02-13T23:49:53.033Z,100961.41
2018-02-13T23:52:22.089Z,100963.54
2018-02-13T23:54:51.666Z,100969.49
2018-02-13T23:57:20.793Z,100972.09
2018-02-13T23:59:49.795Z,100968.72
